Time;durP1;ratioP1;P1;durP2;ratioP2;P2;SDS_P1;SDS_P2;PMS_P1;PMS_P2;Temp;Humidity;BMP_temperature;BMP_pressure;BME280_temperature;BME280_humidity;BME280_pressure;Samples;Min_cycle;Max_cycle;Signal;HPM_P1;HPM_P2
2022/02/23 00:00:58;;;;;;;8.08;3.27;;;;;;;4.12;56.30;100088.52;1739956;80;22334;-55
2022/02/23 00:03:25;;;;;;;6.92;3.62;;;;;;;4.07;56.49;100091.85;1756063;80;20990;-55
2022/02/23 00:05:51;;;;;;;6.80;2.98;;;;;;;4.02;56.61;100088.67;1729705;81;21061;-55
2022/02/23 00:08:18;;;;;;;10.58;4.60;;;;;;;3.98;56.78;100094.97;1731209;81;21042;-54
2022/02/23 00:10:44;;;;;;;6.65;3.35;;;;;;;3.95;56.86;100092.53;1690905;82;21087;-55
2022/02/23 00:13:11;;;;;;;7.17;3.60;;;;;;;3.94;56.95;100095.61;1738606;80;21085;-55
2022/02/23 00:15:38;;;;;;;11.48;3.77;;;;;;;3.90;57.06;100089.75;1709429;81;21049;-54
2022/02/23 00:18:12;;;;;;;7.80;3.50;;;;;;;3.86;57.09;100096.51;1730533;81;21105;-55
2022/02/23 00:20:39;;;;;;;7.97;3.75;;;;;;;3.82;57.14;100095.84;1765981;79;21045;-55
2022/02/23 00:23:05;;;;;;;8.83;4.12;;;;;;;3.77;57.33;100107.45;1753970;79;21100;-54
2022/02/23 00:25:32;;;;;;;7.72;4.00;;;;;;;3.74;57.43;100112.82;1755801;79;21080;-54
2022/02/23 00:27:58;;;;;;;7.33;4.03;;;;;;;3.69;57.55;100110.00;1729629;81;21550;-54
2022/02/23 00:30:26;;;;;;;9.33;4.28;;;;;;;3.62;57.78;100106.07;1736505;80;21499;-55
2022/02/23 00:32:53;;;;;;;8.50;4.42;;;;;;;3.59;57.94;100098.42;1765170;79;21064;-54
2022/02/23 00:35:19;;;;;;;8.65;4.25;;;;;;;3.58;58.08;100090.70;1719278;81;21052;-55
2022/02/23 00:37:46;;;;;;;9.15;4.47;;;;;;;3.57;58.10;100100.75;1729899;80;21081;-54
2022/02/23 00:40:13;;;;;;;10.18;4.28;;;;;;;3.56;58.14;100096.46;1725840;81;21144;-55
2022/02/23 00:42:39;;;;;;;8.93;4.50;;;;;;;3.52;58.28;100084.09;1727997;81;21062;-54
2022/02/23 00:45:07;;;;;;;8.60;4.33;;;;;;;3.50;58.30;100095.88;1729376;81;21187;-55
2022/02/23 00:47:34;;;;;;;7.22;3.52;;;;;;;3.49;58.40;100090.28;1724476;81;21053;-55
2022/02/23 00:50:00;;;;;;;7.42;3.67;;;;;;;3.47;58.42;100093.44;1699163;82;21211;-55
2022/02/23 00:52:27;;;;;;;7.40;4.00;;;;;;;3.44;58.51;100088.41;1730191;81;21148;-55
2022/02/23 00:54:53;;;;;;;9.13;3.85;;;;;;;3.46;58.57;100093.52;1725869;81;21012;-55
2022/02/23 00:57:19;;;;;;;8.73;4.62;;;;;;;3.45;58.64;100091.39;1730162;81;21072;-56
2022/02/23 00:59:46;;;;;;;9.93;4.83;;;;;;;3.47;58.63;100089.54;1721202;81;21109;-55
2022/02/23 01:02:12;;;;;;;9.68;4.70;;;;;;;3.47;58.63;100094.74;1730376;81;21093;-55
2022/02/23 01:04:39;;;;;;;10.70;5.03;;;;;;;3.44;58.68;100101.41;1737859;81;21039;-55
2022/02/23 01:07:06;;;;;;;10.40;4.42;;;;;;;3.42;58.70;100095.93;1728930;81;21072;-56
2022/02/23 01:09:33;;;;;;;9.70;4.78;;;;;;;3.40;58.76;100100.38;1739451;81;21611;-55
2022/02/23 01:11:59;;;;;;;7.90;3.72;;;;;;;3.35;58.89;100104.53;1707987;80;21525;-56
2022/02/23 01:14:26;;;;;;;8.50;4.10;;;;;;;3.33;59.02;100108.98;1699266;82;21884;-55
2022/02/23 01:16:52;;;;;;;9.00;4.78;;;;;;;3.30;59.10;100109.14;1765707;79;21670;-55
2022/02/23 01:19:18;;;;;;;8.80;4.60;;;;;;;3.28;59.15;100107.09;1764369;79;21131;-55
2022/02/23 01:21:45;;;;;;;12.63;4.67;;;;;;;3.28;59.15;100104.49;1728667;81;21029;-55
2022/02/23 01:24:12;;;;;;;10.30;5.35;;;;;;;3.23;59.13;100106.03;1752093;79;21139;-55
2022/02/23 01:26:38;;;;;;;11.40;4.30;;;;;;;3.21;59.20;100120.02;1765211;79;21031;-55
2022/02/23 01:29:05;;;;;;;7.60;4.30;;;;;;;3.19;59.38;100129.20;1739442;81;21116;-55
2022/02/23 01:31:31;;;;;;;10.28;4.15;;;;;;;3.20;59.57;100139.16;1704804;81;21133;-55
2022/02/23 01:33:58;;;;;;;7.28;4.22;;;;;;;3.17;59.71;100134.95;1737054;81;21148;-55
2022/02/23 01:36:24;;;;;;;8.65;4.62;;;;;;;3.19;59.74;100134.88;1735470;81;21054;-55
2022/02/23 01:38:51;;;;;;;8.30;4.20;;;;;;;3.21;59.81;100135.63;1735254;80;21130;-55
2022/02/23 01:41:19;;;;;;;7.70;3.72;;;;;;;3.22;59.84;100139.92;1709346;82;21073;-55
2022/02/23 01:43:47;;;;;;;9.00;3.90;;;;;;;3.27;59.76;100143.11;1720226;81;21102;-55
2022/02/23 01:46:15;;;;;;;6.90;3.62;;;;;;;3.38;59.72;100143.82;1733555;80;21063;-55
2022/02/23 01:48:42;;;;;;;7.58;3.60;;;;;;;3.49;59.57;100142.31;1728017;81;21088;-55
2022/02/23 01:51:08;;;;;;;9.00;4.25;;;;;;;3.62;59.70;100147.70;1722934;81;21650;-55
2022/02/23 01:53:35;;;;;;;9.23;4.95;;;;;;;3.74;59.57;100146.19;1722859;81;21509;-55
2022/02/23 01:56:01;;;;;;;8.85;4.25;;;;;;;3.81;59.38;100151.42;1728773;81;21556;-55
2022/02/23 01:58:28;;;;;;;9.90;4.67;;;;;;;3.81;59.37;100156.63;1713140;81;21037;-55
2022/02/23 02:00:56;;;;;;;8.23;4.17;;;;;;;3.82;59.34;100158.31;1723447;81;21080;-56
2022/02/23 02:03:25;;;;;;;7.28;3.85;;;;;;;3.81;59.32;100159.70;1730110;81;21454;-55
2022/02/23 02:05:51;;;;;;;7.15;4.08;;;;;;;3.81;59.37;100157.92;1717985;81;21121;-55
2022/02/23 02:08:17;;;;;;;8.10;4.42;;;;;;;3.81;59.36;100160.52;1712071;82;21083;-57
2022/02/23 02:10:44;;;;;;;7.58;4.03;;;;;;;3.83;59.36;100161.30;1703714;81;21128;-55
2022/02/23 02:13:11;;;;;;;6.37;3.00;;;;;;;3.84;59.37;100163.44;1702358;82;21177;-56
2022/02/23 02:15:38;;;;;;;7.83;3.80;;;;;;;3.84;59.41;100161.66;1737398;81;21134;-55
2022/02/23 02:18:06;;;;;;;8.35;3.95;;;;;;;3.81;59.38;100163.13;1733867;80;21083;-56
2022/02/23 02:20:33;;;;;;;10.48;4.10;;;;;;;3.76;59.50;100166.45;1740150;81;21583;-55
2022/02/23 02:23:00;;;;;;;6.22;3.35;;;;;;;3.77;59.60;100166.01;1738697;81;21104;-55
2022/02/23 02:25:26;;;;;;;9.00;4.22;;;;;;;3.76;59.66;100168.22;1742548;81;21057;-55
2022/02/23 02:27:53;;;;;;;7.87;4.40;;;;;;;3.72;59.74;100166.25;1733094;81;21098;-55
2022/02/23 02:30:19;;;;;;;8.63;4.08;;;;;;;3.68;59.82;100166.03;1704091;82;21117;-55
2022/02/23 02:32:46;;;;;;;7.85;4.15;;;;;;;3.63;59.86;100171.95;1735218;81;21086;-56
2022/02/23 02:35:15;;;;;;;6.97;3.87;;;;;;;3.61;60.01;100180.30;1713186;81;21615;-55
2022/02/23 02:37:41;;;;;;;7.55;4.22;;;;;;;3.60;60.16;100185.98;1706056;82;21613;-55
2022/02/23 02:40:09;;;;;;;9.45;3.90;;;;;;;3.60;60.18;100186.42;1713136;81;21049;-55
2022/02/23 02:42:35;;;;;;;8.23;4.87;;;;;;;3.62;60.24;100191.10;1738418;80;21179;-55
2022/02/23 02:45:02;;;;;;;9.45;4.35;;;;;;;3.60;60.29;100200.29;1754538;79;21105;-56
2022/02/23 02:47:29;;;;;;;9.78;3.62;;;;;;;3.60;60.39;100204.19;1765063;79;21075;-55
2022/02/23 02:49:55;;;;;;;7.97;4.00;;;;;;;3.61;60.53;100205.02;1733864;81;21054;-56
2022/02/23 02:52:22;;;;;;;7.45;4.10;;;;;;;3.63;60.58;100207.07;1739632;80;21112;-55
2022/02/23 02:54:48;;;;;;;7.47;4.22;;;;;;;3.64;60.65;100213.50;1731339;81;21641;-55
2022/02/23 02:57:15;;;;;;;8.73;4.20;;;;;;;3.66;60.59;100219.45;1731016;81;21061;-55
2022/02/23 02:59:41;;;;;;;11.93;4.35;;;;;;;3.67;60.60;100223.75;1719539;82;21046;-55
2022/02/23 03:02:08;;;;;;;7.30;4.03;;;;;;;3.68;60.74;100233.69;1698983;82;21062;-56
2022/02/23 03:04:35;;;;;;;8.65;3.85;;;;;;;3.69;60.79;100231.47;1741349;81;21028;-55
2022/02/23 03:07:01;;;;;;;9.63;4.70;;;;;;;3.71;60.97;100229.63;1735223;81;21006;-55
2022/02/23 03:09:27;;;;;;;8.83;4.45;;;;;;;3.73;61.10;100229.07;1745353;80;21093;-56
2022/02/23 03:11:54;;;;;;;7.90;3.70;;;;;;;3.75;61.23;100234.20;1738753;80;21073;-55
2022/02/23 03:14:21;;;;;;;9.45;4.83;;;;;;;3.79;61.38;100235.73;1730101;81;21592;-55
2022/02/23 03:16:48;;;;;;;7.62;4.33;;;;;;;3.84;61.42;100231.94;1722482;81;21920;-55
2022/02/23 03:19:14;;;;;;;9.38;4.15;;;;;;;3.94;61.39;100233.58;1744476;81;21072;-55
2022/02/23 03:21:41;;;;;;;10.10;4.22;;;;;;;4.03;61.42;100236.14;1706703;80;21061;-56
2022/02/23 03:24:07;;;;;;;7.75;4.50;;;;;;;4.08;61.57;100244.09;1746959;80;21072;-55
2022/02/23 03:26:34;;;;;;;7.87;4.20;;;;;;;4.07;61.65;100237.20;1709946;81;21053;-55
2022/02/23 03:29:01;;;;;;;8.85;4.35;;;;;;;4.12;61.72;100239.99;1746309;81;21073;-55
2022/02/23 03:31:27;;;;;;;7.62;3.85;;;;;;;4.13;61.72;100237.30;1721788;81;21093;-55
2022/02/23 03:33:53;;;;;;;9.60;5.10;;;;;;;4.13;61.67;100236.00;1685321;82;21132;-55
2022/02/23 03:36:20;;;;;;;9.65;4.75;;;;;;;4.10;61.74;100237.47;1756175;79;21105;-55
2022/02/23 03:38:46;;;;;;;10.43;5.05;;;;;;;4.07;61.74;100232.45;1767538;81;21491;-55
2022/02/23 03:41:13;;;;;;;7.40;3.92;;;;;;;4.02;61.77;100234.48;1765085;79;21105;-55
2022/02/23 03:43:40;;;;;;;7.30;4.20;;;;;;;3.95;61.85;100238.32;1770656;79;21452;-55
2022/02/23 03:46:07;;;;;;;9.55;3.77;;;;;;;3.85;62.03;100245.34;1767335;79;21068;-55
2022/02/23 03:48:34;;;;;;;7.10;4.15;;;;;;;3.76;62.24;100241.09;1743408;79;21057;-55
2022/02/23 03:51:00;;;;;;;8.70;4.33;;;;;;;3.66;62.39;100244.17;1724366;81;21136;-55
2022/02/23 03:53:27;;;;;;;8.08;4.03;;;;;;;3.62;62.54;100242.67;1711636;80;21113;-55
2022/02/23 03:55:53;;;;;;;8.40;3.98;;;;;;;3.59;62.77;100245.90;1700488;81;21104;-55
2022/02/23 03:58:21;;;;;;;6.72;3.17;;;;;;;3.56;62.81;100252.56;1728153;81;21069;-55
2022/02/23 04:00:48;;;;;;;8.08;3.52;;;;;;;3.53;62.77;100244.45;1689677;82;21094;-55
2022/02/23 04:03:14;;;;;;;7.35;3.40;;;;;;;3.53;62.65;100237.94;1725851;81;21180;-55
2022/02/23 04:05:41;;;;;;;8.98;3.60;;;;;;;3.50;62.41;100245.47;1700174;81;23374;-55
2022/02/23 04:08:07;;;;;;;6.10;2.52;;;;;;;3.47;62.23;100253.89;1697319;82;21083;-53
2022/02/23 04:10:36;;;;;;;6.28;2.58;;;;;;;3.42;61.61;100254.13;1696510;81;21064;-55
2022/02/23 04:13:04;;;;;;;5.75;2.17;;;;;;;3.38;61.30;100262.16;1729179;81;22204;-55
2022/02/23 04:15:32;;;;;;;5.25;2.65;;;;;;;3.32;60.93;100260.73;1765471;79;21202;-53
2022/02/23 04:17:59;;;;;;;5.10;2.87;;;;;;;3.27;60.88;100264.03;1767653;79;21476;-55
2022/02/23 04:20:25;;;;;;;5.03;2.05;;;;;;;3.22;60.63;100268.63;1752757;81;21029;-54
2022/02/23 04:22:52;;;;;;;6.00;2.05;;;;;;;3.15;60.07;100271.53;1756045;80;21111;-53
2022/02/23 04:25:18;;;;;;;4.97;1.95;;;;;;;3.11;59.46;100281.72;1760825;79;21062;-50
2022/02/23 04:27:45;;;;;;;4.47;1.70;;;;;;;3.04;57.95;100276.90;1731710;81;21031;-54
2022/02/23 04:30:12;;;;;;;4.42;1.55;;;;;;;3.04;57.74;100277.73;1767000;79;21074;-52
2022/02/23 04:32:39;;;;;;;5.60;2.10;;;;;;;3.04;56.94;100282.09;1730543;81;21485;-53
2022/02/23 04:35:07;;;;;;;4.60;1.47;;;;;;;3.03;56.62;100285.16;1739323;81;21104;-53
2022/02/23 04:37:33;;;;;;;3.77;1.25;;;;;;;3.01;56.24;100289.61;1730708;81;21071;-53
2022/02/23 04:40:00;;;;;;;4.20;1.35;;;;;;;3.00;56.17;100284.02;1750831;79;21208;-54
2022/02/23 04:42:27;;;;;;;5.12;1.27;;;;;;;2.98;55.57;100285.39;1766144;79;21066;-55
2022/02/23 04:45:00;;;;;;;4.10;1.57;;;;;;;2.97;55.25;100289.36;1724695;81;21085;-52
2022/02/23 04:47:23;;;;;;;4.70;1.75;;;;;;;3.01;55.09;100290.05;1761057;79;20961;-53
2022/02/23 04:49:49;;;;;;;5.50;1.90;;;;;;;3.05;54.89;100297.63;1771953;79;21132;-53
2022/02/23 04:52:15;;;;;;;8.00;1.80;;;;;;;3.07;54.87;100308.77;1764653;79;21066;-54
2022/02/23 04:54:42;;;;;;;3.83;1.57;;;;;;;3.08;54.77;100305.27;1728553;81;21078;-54
2022/02/23 04:57:09;;;;;;;5.80;1.72;;;;;;;3.08;54.83;100307.87;1728936;81;21041;-54
2022/02/23 04:59:35;;;;;;;5.67;1.80;;;;;;;3.05;54.94;100314.52;1716595;82;21082;-54
2022/02/23 05:02:03;;;;;;;9.48;2.20;;;;;;;3.01;55.10;100329.03;1763262;79;21018;-53
2022/02/23 05:04:30;;;;;;;4.95;1.80;;;;;;;2.96;55.26;100335.78;1725197;81;21098;-53
2022/02/23 05:06:59;;;;;;;5.45;2.10;;;;;;;2.91;55.33;100332.57;1740302;80;21127;-54
2022/02/23 05:09:26;;;;;;;5.37;1.87;;;;;;;2.87;55.48;100329.72;1708230;81;21058;-53
2022/02/23 05:11:52;;;;;;;5.87;1.72;;;;;;;2.84;55.55;100334.63;1702085;81;21663;-54
2022/02/23 05:14:20;;;;;;;4.40;2.00;;;;;;;2.82;55.62;100342.93;1725448;81;21691;-54
2022/02/23 05:16:47;;;;;;;3.95;1.72;;;;;;;2.82;55.67;100343.40;1724142;81;21179;-54
2022/02/23 05:19:14;;;;;;;3.65;1.37;;;;;;;2.78;55.64;100347.44;1738598;81;21202;-54
2022/02/23 05:21:40;;;;;;;5.83;1.95;;;;;;;2.75;55.68;100359.74;1738545;80;21125;-53
2022/02/23 05:24:07;;;;;;;4.70;1.82;;;;;;;2.72;55.81;100364.64;1735633;80;21107;-54
2022/02/23 05:29:31;;;;;;;2.67;1.10;;;;;;;2.74;56.01;100369.74;1861333;75;22500;-53
2022/02/23 05:31:58;;;;;;;4.25;1.62;;;;;;;2.74;55.91;100378.40;1839024;75;20987;-53
2022/02/23 05:34:24;;;;;;;4.45;1.90;;;;;;;2.75;55.93;100385.26;1825081;77;21007;-53
2022/02/23 05:36:51;;;;;;;5.55;1.77;;;;;;;2.73;55.98;100380.60;1842106;77;21123;-52
2022/02/23 05:39:17;;;;;;;6.55;2.10;;;;;;;2.76;55.88;100380.46;1846178;77;20986;-53
2022/02/23 05:41:44;;;;;;;5.42;2.05;;;;;;;2.78;55.74;100379.09;1818719;77;21033;-51
2022/02/23 05:44:11;;;;;;;4.97;1.82;;;;;;;2.82;55.58;100383.67;1807754;77;21076;-55
2022/02/23 05:46:38;;;;;;;6.65;1.90;;;;;;;2.83;55.49;100385.38;1780537;78;21087;-57
2022/02/23 05:49:04;;;;;;;4.78;1.45;;;;;;;2.85;55.17;100388.73;1804628;78;21033;-54
2022/02/23 05:51:37;;;;;;;3.92;1.50;;;;;;;2.82;55.14;100392.31;1810109;77;21026;-59
2022/02/23 05:54:05;;;;;;;3.90;1.60;;;;;;;2.78;55.25;100389.48;1805390;77;21038;-54
2022/02/23 05:56:31;;;;;;;5.03;1.50;;;;;;;2.79;55.24;100395.05;1770817;78;21082;-58
2022/02/23 05:58:58;;;;;;;3.40;1.20;;;;;;;2.79;55.21;100394.61;1772742;80;21207;-57
2022/02/23 06:01:25;;;;;;;3.95;1.80;;;;;;;2.81;55.06;100397.58;1766135;80;21544;-60
2022/02/23 06:03:51;;;;;;;3.90;1.50;;;;;;;2.83;54.86;100400.97;1750614;80;21569;-62
2022/02/23 06:06:19;;;;;;;4.40;1.52;;;;;;;2.84;54.65;100406.09;1769002;79;21077;-60
2022/02/23 06:08:46;;;;;;;4.00;1.67;;;;;;;2.86;54.29;100407.30;1784532;78;21057;-60
2022/02/23 06:11:13;;;;;;;5.35;1.60;;;;;;;2.90;54.11;100410.98;1781992;78;21130;-60
2022/02/23 06:13:40;;;;;;;5.30;1.80;;;;;;;2.92;53.73;100412.20;1808887;77;21051;-61
2022/02/23 06:16:07;;;;;;;5.35;1.52;;;;;;;2.96;53.56;100412.00;1785848;78;21104;-60
2022/02/23 06:18:34;;;;;;;3.55;1.25;;;;;;;3.01;52.83;100418.72;1787228;78;21148;-60
2022/02/23 06:21:01;;;;;;;12.80;2.20;;;;;;;3.04;52.55;100414.20;1742741;80;21101;-56
2022/02/23 06:23:28;;;;;;;4.72;1.52;;;;;;;3.10;52.36;100426.09;1759447;78;21190;-59
2022/02/23 06:25:55;;;;;;;5.37;1.72;;;;;;;3.15;52.17;100431.44;1774007;78;21133;-58
2022/02/23 06:28:21;;;;;;;10.60;1.90;;;;;;;3.16;51.66;100426.64;1764337;79;21090;-59
2022/02/23 06:30:48;;;;;;;4.83;1.40;;;;;;;3.21;51.13;100430.33;1808545;78;21125;-64
2022/02/23 06:33:18;;;;;;;3.60;1.27;;;;;;;3.24;51.03;100434.52;1814951;78;21081;-60
2022/02/23 06:35:43;;;;;;;5.83;1.47;;;;;;;3.27;50.69;100427.88;1784306;80;21151;-60
2022/02/23 06:38:10;;;;;;;3.85;1.50;;;;;;;3.28;50.72;100431.70;1816718;78;21108;-63
2022/02/23 06:40:36;;;;;;;4.72;1.95;;;;;;;3.31;50.38;100435.45;1809225;77;21031;-58
2022/02/23 06:43:03;;;;;;;4.45;1.57;;;;;;;3.35;50.16;100438.27;1814262;77;21022;-62
2022/02/23 06:45:29;;;;;;;6.05;2.15;;;;;;;3.37;49.91;100439.97;1812836;78;21050;-61
2022/02/23 06:47:56;;;;;;;3.98;1.10;;;;;;;3.39;49.62;100442.86;1805477;78;21125;-61
2022/02/23 06:50:22;;;;;;;3.27;0.95;;;;;;;3.43;49.21;100443.11;1759782;78;21087;-71
2022/02/23 06:52:49;;;;;;;2.50;0.88;;;;;;;3.48;48.88;100444.16;1788667;78;21641;-62
2022/02/23 06:55:16;;;;;;;3.77;1.37;;;;;;;3.51;48.81;100440.11;1785189;78;21585;-61
2022/02/23 06:57:43;;;;;;;4.60;1.57;;;;;;;3.56;48.72;100448.53;1769191;79;21558;-62
2022/02/23 07:00:12;;;;;;;4.62;1.77;;;;;;;3.60;48.62;100455.28;1793902;79;21107;-59
2022/02/23 07:02:38;;;;;;;4.80;1.40;;;;;;;3.66;48.25;100456.73;1786478;79;21096;-62
2022/02/23 07:05:07;;;;;;;5.03;1.95;;;;;;;3.71;47.89;100448.23;1797971;79;21296;-56
2022/02/23 07:07:34;;;;;;;3.40;1.30;;;;;;;3.77;47.93;100451.83;1787627;78;21140;-52
2022/02/23 07:10:02;;;;;;;4.15;1.30;;;;;;;3.82;47.20;100453.73;1759951;80;21057;-54
2022/02/23 07:12:28;;;;;;;5.60;1.50;;;;;;;3.83;46.37;100450.66;1775144;80;21137;-55
2022/02/23 07:14:56;;;;;;;4.37;1.40;;;;;;;3.88;46.63;100470.80;1782065;78;21227;-56
2022/02/23 07:17:22;;;;;;;4.10;1.35;;;;;;;3.86;46.77;100470.03;1787536;78;21089;-52
2022/02/23 07:19:50;;;;;;;5.42;1.72;;;;;;;3.86;47.02;100470.87;1814035;78;21631;-53
2022/02/23 07:22:19;;;;;;;6.62;1.22;;;;;;;3.87;46.75;100466.53;1783119;78;21659;-58
2022/02/23 07:24:46;;;;;;;3.60;1.20;;;;;;;3.88;46.97;100472.09;1810935;77;21142;-60
2022/02/23 07:27:14;;;;;;;3.95;1.32;;;;;;;3.93;46.48;100470.10;1811424;78;21593;-55
2022/02/23 07:29:45;;;;;;;4.95;1.35;;;;;;;3.97;45.83;100470.34;1774091;79;21366;-57
2022/02/23 07:32:09;;;;;;;3.98;1.35;;;;;;;4.02;45.83;100477.92;1748178;80;21016;-53
2022/02/23 07:34:37;;;;;;;3.92;1.20;;;;;;;4.02;46.00;100485.27;1767615;79;21109;-52
2022/02/23 07:37:03;;;;;;;30.08;3.62;;;;;;;4.06;44.78;100488.55;1772251;79;21097;-53
2022/02/23 07:39:30;;;;;;;24.23;2.30;;;;;;;4.00;44.97;100491.02;1774684;79;21082;-55
2022/02/23 07:41:57;;;;;;;12.58;2.42;;;;;;;3.96;45.40;100491.25;1765670;80;21103;-53
2022/02/23 07:44:23;;;;;;;5.08;1.85;;;;;;;3.96;45.76;100480.83;1734724;79;21095;-53
2022/02/23 07:46:50;;;;;;;3.65;1.17;;;;;;;4.00;45.58;100495.36;1762990;79;21070;-53
2022/02/23 07:49:16;;;;;;;2.22;0.80;;;;;;;4.03;45.64;100488.23;1771751;79;21071;-59
2022/02/23 07:51:44;;;;;;;4.10;1.40;;;;;;;4.11;45.45;100484.42;1766126;79;21537;-61
2022/02/23 07:54:10;;;;;;;5.00;1.40;;;;;;;4.17;45.26;100490.16;1766399;79;21581;-59
2022/02/23 07:56:37;;;;;;;3.05;1.07;;;;;;;4.23;45.09;100495.02;1765165;79;21535;-61
2022/02/23 07:59:03;;;;;;;5.97;1.50;;;;;;;4.25;44.47;100502.32;1766286;79;21674;-60
2022/02/23 08:01:34;;;;;;;5.03;1.57;;;;;;;4.22;44.36;100499.88;1764782;79;21486;-62
2022/02/23 08:04:01;;;;;;;5.03;1.27;;;;;;;4.18;44.86;100500.10;1760981;79;21061;-61
2022/02/23 08:06:28;;;;;;;4.83;1.22;;;;;;;4.17;45.00;100489.29;1762072;79;21042;-62
2022/02/23 08:08:56;;;;;;;4.12;1.52;;;;;;;4.21;44.93;100505.99;1734281;79;21062;-60
2022/02/23 08:11:24;;;;;;;4.53;1.47;;;;;;;4.23;44.91;100498.93;1735700;79;21343;-60
2022/02/23 08:13:58;;;;;;;3.55;1.30;;;;;;;4.24;45.07;100487.60;1757914;80;21089;-59
2022/02/23 08:21:56;;;;;;;5.17;2.00;;;;;;;4.40;44.80;100501.13;1757840;79;21065;-60
2022/02/23 08:24:24;;;;;;;3.65;1.40;;;;;;;4.45;45.01;100494.77;1759344;79;21100;-59
2022/02/23 08:26:51;;;;;;;7.08;2.12;;;;;;;4.46;44.76;100496.44;1764240;79;23458;-58
2022/02/23 08:29:17;;;;;;;3.72;1.15;;;;;;;4.47;44.92;100492.05;1770905;79;21696;-58
2022/02/23 08:31:44;;;;;;;7.12;1.87;;;;;;;4.52;45.03;100490.05;1779020;79;22569;-61
2022/02/23 08:34:10;;;;;;;5.45;1.87;;;;;;;4.55;45.38;100485.98;1781894;78;21689;-58
2022/02/23 08:36:37;;;;;;;3.90;1.17;;;;;;;4.64;45.12;100492.02;1784791;79;21070;-59
2022/02/23 08:39:04;;;;;;;8.48;2.33;;;;;;;4.72;44.72;100493.36;1778578;78;21094;-59
2022/02/23 08:41:31;;;;;;;8.28;3.25;;;;;;;4.75;44.95;100493.20;1781610;79;21078;-60
2022/02/23 08:43:57;;;;;;;5.15;1.72;;;;;;;4.80;44.51;100486.80;1780604;79;21054;-59
2022/02/23 08:46:24;;;;;;;4.53;1.57;;;;;;;4.82;44.46;100481.52;1747642;79;21128;-59
2022/02/23 08:48:52;;;;;;;3.65;1.52;;;;;;;4.81;44.03;100483.28;1777328;78;21097;-59
2022/02/23 08:51:19;;;;;;;4.75;2.12;;;;;;;4.82;44.32;100489.33;1778638;78;21132;-59
2022/02/23 08:53:47;;;;;;;5.42;1.87;;;;;;;4.81;44.44;100478.07;1777469;78;21048;-62
2022/02/23 08:56:14;;;;;;;5.62;2.33;;;;;;;4.88;44.40;100485.09;1803169;77;21638;-61
2022/02/23 08:58:40;;;;;;;4.58;1.67;;;;;;;4.94;44.48;100484.77;1787502;78;21542;-59
2022/02/23 09:01:07;;;;;;;5.33;1.57;;;;;;;5.00;44.90;100488.33;1805525;77;21098;-59
2022/02/23 09:03:34;;;;;;;7.62;2.75;;;;;;;5.07;44.46;100486.69;1756593;78;22092;-59
2022/02/23 09:06:00;;;;;;;7.90;1.57;;;;;;;5.11;44.62;100480.37;1813352;77;21082;-61
2022/02/23 09:08:27;;;;;;;3.80;1.32;;;;;;;5.17;44.40;100490.00;1747670;79;21105;-57
2022/02/23 09:10:54;;;;;;;3.35;1.35;;;;;;;5.15;44.13;100492.33;1784157;79;21088;-53
2022/02/23 09:13:22;;;;;;;5.97;1.77;;;;;;;5.11;44.20;100490.36;1777682;79;21469;-53
2022/02/23 09:15:50;;;;;;;5.17;1.42;;;;;;;5.16;44.17;100487.47;1770547;79;21134;-53
2022/02/23 09:18:17;;;;;;;5.47;1.72;;;;;;;5.24;43.98;100490.97;1783974;79;21078;-52
2022/02/23 09:20:43;;;;;;;4.95;1.87;;;;;;;5.33;43.33;100496.95;1782352;79;20983;-54
2022/02/23 09:23:11;;;;;;;3.95;1.60;;;;;;;5.42;43.92;100491.70;1781695;79;21094;-53
2022/02/23 09:25:38;;;;;;;6.42;2.77;;;;;;;5.53;43.48;100496.70;1783898;79;21663;-53
2022/02/23 09:28:04;;;;;;;4.80;1.90;;;;;;;5.62;43.39;100488.80;1786872;79;21576;-54
2022/02/23 09:30:31;;;;;;;4.53;1.92;;;;;;;5.68;43.54;100498.03;1776771;79;21009;-56
2022/02/23 09:32:57;;;;;;;12.93;2.92;;;;;;;5.74;43.55;100485.94;1737947;79;21626;-53
2022/02/23 09:35:25;;;;;;;4.83;2.08;;;;;;;5.79;43.31;100486.50;1730402;79;21555;-56
2022/02/23 09:37:52;;;;;;;4.47;1.98;;;;;;;5.84;43.34;100484.94;1767467;79;21353;-52
2022/02/23 09:40:18;;;;;;;4.50;1.80;;;;;;;5.85;42.99;100486.59;1763688;79;21852;-51
2022/02/23 09:42:46;;;;;;;4.15;1.62;;;;;;;5.88;42.45;100479.42;1763150;79;21015;-52
2022/02/23 09:45:13;;;;;;;4.85;1.98;;;;;;;5.90;42.76;100477.59;1768107;79;21056;-52
2022/02/23 09:47:41;;;;;;;4.42;1.62;;;;;;;5.95;42.82;100483.81;1733516;79;21098;-53
2022/02/23 09:50:11;;;;;;;3.72;1.70;;;;;;;6.03;42.99;100478.19;1762304;79;21099;-54
2022/02/23 09:52:38;;;;;;;4.47;1.72;;;;;;;6.17;42.69;100477.35;1763050;81;21025;-56
2022/02/23 09:55:07;;;;;;;5.17;2.12;;;;;;;6.32;42.09;100485.56;1756010;79;21084;-54
2022/02/23 09:57:34;;;;;;;5.62;1.95;;;;;;;6.40;41.38;100512.08;1736646;81;20995;-54
2022/02/23 10:00:05;;;;;;;5.97;1.82;;;;;;;6.42;41.69;100482.80;1758214;79;21559;-53
2022/02/23 10:02:34;;;;;;;10.13;3.25;;;;;;;6.49;41.54;100495.02;1757703;81;21061;-52
2022/02/23 10:05:03;;;;;;;5.85;2.45;;;;;;;6.53;41.55;100479.98;1765342;79;21741;-54
2022/02/23 10:07:32;;;;;;;6.87;2.22;;;;;;;6.59;41.43;100476.53;1757231;79;21074;-54
2022/02/23 10:10:00;;;;;;;5.35;1.80;;;;;;;6.69;41.28;100488.09;1763767;79;21108;-54
2022/02/23 10:12:29;;;;;;;5.17;2.22;;;;;;;6.76;39.57;100491.61;1766271;79;21120;-52
2022/02/23 10:15:16;;;;;;;5.55;2.22;;;;;;;6.76;39.72;100486.38;1730712;79;21585;-53
2022/02/23 10:17:48;;;;;;;6.70;1.95;;;;;;;6.77;39.54;100475.00;1763578;79;21184;-53
2022/02/23 10:20:34;;;;;;;6.28;3.10;;;;;;;6.81;39.50;100477.81;1757052;80;21553;-53
2022/02/23 10:23:03;;;;;;;6.15;2.17;;;;;;;6.82;39.03;100480.78;1750759;80;21599;-53
2022/02/23 10:25:31;;;;;;;4.55;1.65;;;;;;;6.81;38.79;100482.56;1754023;81;21532;-53
2022/02/23 10:28:18;;;;;;;4.95;1.95;;;;;;;6.77;38.63;100479.75;1753529;81;21089;-53
2022/02/23 10:30:46;;;;;;;4.55;1.90;;;;;;;6.74;39.19;100481.72;1747349;80;21011;-53
2022/02/23 10:33:22;;;;;;;6.00;2.37;;;;;;;6.77;39.29;100478.44;1779505;79;21069;-54
2022/02/23 10:36:00;;;;;;;5.67;1.70;;;;;;;6.81;39.26;100480.42;1780634;78;21046;-53
2022/02/23 10:38:33;;;;;;;4.75;1.82;;;;;;;6.88;39.21;100477.78;1766224;79;21089;-52
2022/02/23 10:41:02;;;;;;;4.25;1.60;;;;;;;6.94;38.71;100473.93;1783762;79;21061;-53
2022/02/23 10:43:39;;;;;;;7.12;2.42;;;;;;;6.98;38.92;100476.74;1785515;78;21118;-54
2022/02/23 10:46:15;;;;;;;5.85;2.45;;;;;;;7.09;38.94;100469.02;1797572;78;21583;-54
2022/02/23 10:48:43;;;;;;;7.95;2.42;;;;;;;7.18;39.24;100473.68;1799486;78;21133;-53
2022/02/23 10:51:16;;;;;;;6.83;2.22;;;;;;;7.29;39.04;100470.84;1804220;78;21044;-54
2022/02/23 10:53:42;;;;;;;5.42;1.90;;;;;;;7.39;38.90;100465.37;1781826;78;21113;-53
2022/02/23 10:56:28;;;;;;;9.50;3.08;;;;;;;7.51;38.82;100467.65;1786550;78;21592;-53
2022/02/23 10:59:13;;;;;;;5.12;1.80;;;;;;;7.56;38.30;100464.25;1783783;79;21509;-53
2022/02/23 11:01:41;;;;;;;4.08;1.62;;;;;;;7.57;37.90;100464.16;1758294;79;21014;-52
2022/02/23 11:04:09;;;;;;;6.15;2.30;;;;;;;7.57;37.67;100464.64;1752427;79;21027;-52
2022/02/23 11:06:36;;;;;;;4.97;2.22;;;;;;;7.58;37.03;100463.23;1774100;78;21531;-51
2022/02/23 11:09:04;;;;;;;4.53;1.90;;;;;;;7.58;37.61;100465.84;1803047;78;21200;-52
2022/02/23 11:11:31;;;;;;;6.53;2.00;;;;;;;7.66;37.15;100474.48;1808246;78;21435;-51
2022/02/23 11:14:01;;;;;;;4.70;1.82;;;;;;;7.77;37.11;100460.21;1805989;78;21482;-52
2022/02/23 11:16:30;;;;;;;5.45;2.50;;;;;;;7.89;36.78;100457.23;1803112;78;21553;-52
2022/02/23 11:18:59;;;;;;;4.78;1.57;;;;;;;7.99;36.17;100454.36;1755599;80;21056;-52
2022/02/23 11:21:32;;;;;;;5.03;1.80;;;;;;;8.05;36.53;100457.50;1775745;78;21133;-52
2022/02/23 11:24:01;;;;;;;6.17;1.90;;;;;;;8.10;36.32;100456.27;1775060;80;21031;-50
2022/02/23 11:26:30;;;;;;;9.18;3.30;;;;;;;8.10;36.70;100452.78;1784373;78;21089;-51
2022/02/23 11:29:24;;;;;;;13.93;2.77;;;;;;;8.13;36.75;100458.65;1772365;80;21125;-52
2022/02/23 11:31:53;;;;;;;4.87;2.05;;;;;;;8.17;36.38;100454.06;1795660;78;21051;-51
2022/02/23 11:34:22;;;;;;;17.82;4.72;;;;;;;8.11;36.31;100453.16;1776549;79;21147;-52
2022/02/23 11:36:49;;;;;;;4.70;1.75;;;;;;;8.13;36.33;100455.20;1779433;79;20997;-52
2022/02/23 11:39:21;;;;;;;4.53;1.80;;;;;;;8.18;36.22;100449.16;1752711;80;21053;-52
2022/02/23 11:41:59;;;;;;;6.10;2.30;;;;;;;8.25;36.44;100450.41;1774161;79;21087;-53